Time;durP1;ratioP1;P1;durP2;ratioP2;P2;SDS_P1;SDS_P2;PMS_P1;PMS_P2;Temp;Humidity;BMP_temperature;BMP_pressure;BME280_temperature;BME280_humidity;BME280_pressure;Samples;Min_cycle;Max_cycle;Signal;HPM_P1;HPM_P2
2022/01/26 00:05:43;;;;;;;29.50;9.83;;;;;;;1.60;100.00;102139.28;5018562;28;20231;-73
2022/01/26 00:06:28;;;;;;;24.70;9.83;;;;;;;1.59;100.00;102126.38;5020140;28;20211;-74
2022/01/26 00:08:55;;;;;;;26.23;8.77;;;;;;;1.59;100.00;102132.38;5018996;28;20576;-73
2022/01/26 00:11:23;;;;;;;24.23;9.37;;;;;;;1.57;100.00;102128.03;5016629;28;20815;-75
2022/01/26 00:13:50;;;;;;;25.87;10.07;;;;;;;1.56;100.00;102127.13;5018092;28;20199;-75
2022/01/26 00:16:25;;;;;;;25.30;9.70;;;;;;;1.57;100.00;102126.31;5018824;28;20223;-75
2022/01/26 00:18:55;;;;;;;28.70;9.57;;;;;;;1.58;100.00;102124.63;5015820;28;20210;-75
2022/01/26 00:21:29;;;;;;;25.43;9.53;;;;;;;1.55;100.00;102125.41;5020101;28;20224;-75
2022/01/26 00:24:21;;;;;;;29.03;10.10;;;;;;;1.52;100.00;102115.88;5016882;28;20225;-75
2022/01/26 00:27:05;;;;;;;24.97;9.77;;;;;;;1.51;100.00;102116.72;5019224;28;20207;-75
2022/01/26 00:29:35;;;;;;;28.90;9.40;;;;;;;1.52;100.00;102112.44;5020057;28;20574;-75
2022/01/26 00:40:25;;;;;;;28.30;9.43;;;;;;;1.51;100.00;102118.38;5017629;28;20243;-75
2022/01/26 00:43:00;;;;;;;26.33;9.87;;;;;;;1.49;100.00;102115.75;5017298;28;20211;-75
2022/01/26 00:45:33;;;;;;;26.23;10.20;;;;;;;1.48;100.00;102111.47;5021246;28;20652;-75
2022/01/26 00:48:03;;;;;;;29.17;10.37;;;;;;;1.49;100.00;102117.47;5020255;28;20203;-75
2022/01/26 00:50:29;;;;;;;25.80;9.87;;;;;;;1.48;100.00;102121.72;5023286;28;20315;-75
2022/01/26 00:52:55;;;;;;;29.33;11.13;;;;;;;1.48;100.00;102118.31;5022994;28;20716;-75
2022/01/26 00:55:22;;;;;;;31.23;10.83;;;;;;;1.47;100.00;102119.09;5024874;28;20224;-75
2022/01/26 00:57:49;;;;;;;34.83;10.97;;;;;;;1.48;100.00;102116.59;5025058;28;20694;-75
2022/01/26 01:00:19;;;;;;;30.63;10.93;;;;;;;1.47;100.00;102124.25;5023382;28;20208;-75
2022/01/26 01:02:46;;;;;;;32.40;10.20;;;;;;;1.45;100.00;102129.34;5027159;28;20204;-75
2022/01/26 01:05:17;;;;;;;30.83;10.97;;;;;;;1.45;100.00;102125.91;5026745;28;20204;-75
2022/01/26 01:07:45;;;;;;;38.00;12.30;;;;;;;1.43;100.00;102122.41;5025933;28;20427;-75
2022/01/26 01:10:13;;;;;;;32.47;12.47;;;;;;;1.44;100.00;102122.47;5023261;28;20208;-75
2022/01/26 01:12:43;;;;;;;31.70;11.73;;;;;;;1.44;100.00;102124.13;5027302;28;20204;-75
2022/01/26 01:15:10;;;;;;;29.10;11.23;;;;;;;1.44;100.00;102117.31;5025070;28;20607;-75
2022/01/26 01:17:41;;;;;;;35.27;12.20;;;;;;;1.42;100.00;102120.63;5027697;28;20223;-75
2022/01/26 01:20:17;;;;;;;33.37;12.10;;;;;;;1.44;100.00;102121.56;5023765;28;20204;-75
2022/01/26 01:22:57;;;;;;;33.10;12.13;;;;;;;1.42;100.00;102120.63;5023435;28;20736;-75
2022/01/26 01:26:04;;;;;;;29.83;10.80;;;;;;;1.41;100.00;102124.91;5027751;28;20211;-75
2022/01/26 01:28:48;;;;;;;38.13;12.67;;;;;;;1.42;100.00;102125.78;5020921;28;20290;-75
2022/01/26 01:31:19;;;;;;;34.53;12.07;;;;;;;1.39;100.00;102115.38;5026463;28;20212;-75
2022/01/26 01:33:48;;;;;;;32.93;11.93;;;;;;;1.39;100.00;102112.81;5020522;28;20212;-75
2022/01/26 01:36:16;;;;;;;34.97;12.60;;;;;;;1.38;100.00;102111.94;5027132;28;20230;-75
2022/01/26 01:38:44;;;;;;;31.77;11.97;;;;;;;1.37;100.00;102107.63;5024067;28;20696;-75
2022/01/26 01:41:10;;;;;;;33.17;12.20;;;;;;;1.38;100.00;102111.94;5025711;28;20227;-75
2022/01/26 01:43:37;;;;;;;38.87;12.87;;;;;;;1.37;100.00;102102.47;5023121;28;20207;-76
2022/01/26 01:46:04;;;;;;;35.07;11.67;;;;;;;1.35;100.00;102104.13;5023228;28;20678;-75
2022/01/26 01:48:32;;;;;;;33.80;11.83;;;;;;;1.35;100.00;102106.69;5026161;28;20296;-75
2022/01/26 01:51:06;;;;;;;39.53;12.77;;;;;;;1.36;100.00;102110.16;5021388;28;20231;-75
2022/01/26 01:53:37;;;;;;;35.63;12.70;;;;;;;1.36;100.00;102107.59;5026356;28;20196;-75
2022/01/26 01:56:05;;;;;;;37.13;12.07;;;;;;;1.32;100.00;102101.47;5022521;28;20314;-75
2022/01/26 01:58:31;;;;;;;38.70;12.70;;;;;;;1.31;100.00;102098.00;5025537;28;20231;-75
2022/01/26 02:00:59;;;;;;;34.03;12.87;;;;;;;1.31;100.00;102097.13;5020353;28;20596;-75
2022/01/26 02:03:25;;;;;;;32.33;11.87;;;;;;;1.28;100.00;102103.03;5024264;28;20204;-75
2022/01/26 02:05:52;;;;;;;36.37;12.23;;;;;;;1.30;100.00;102095.38;5026597;28;20287;-75
2022/01/26 02:08:20;;;;;;;37.77;13.47;;;;;;;1.27;100.00;102093.59;5024988;28;20200;-75
2022/01/26 02:10:47;;;;;;;40.53;13.20;;;;;;;1.24;100.00;102087.47;5023675;28;20224;-75
2022/01/26 02:13:20;;;;;;;33.93;12.23;;;;;;;1.24;100.00;102090.03;5022255;28;20216;-75
2022/01/26 02:15:52;;;;;;;40.40;12.90;;;;;;;1.22;100.00;102089.97;5024749;28;20771;-75
2022/01/26 02:18:34;;;;;;;37.80;13.57;;;;;;;1.21;100.00;102101.06;5019647;28;20203;-75
2022/01/26 02:56:57;;;;;;;46.63;14.00;;;;;;;1.12;100.00;102096.47;5010941;28;20591;-75
2022/01/26 02:59:54;;;;;;;39.07;14.27;;;;;;;1.12;100.00;102100.72;5020430;28;20207;-75
2022/01/26 03:02:29;;;;;;;37.03;13.47;;;;;;;1.13;100.00;102099.94;5024915;28;20208;-75
2022/01/26 03:04:59;;;;;;;37.87;13.77;;;;;;;1.11;100.00;102092.16;5022705;28;20559;-75
2022/01/26 03:07:38;;;;;;;37.30;12.63;;;;;;;1.15;100.00;102092.28;5025910;28;20196;-75
2022/01/26 03:10:15;;;;;;;35.80;13.73;;;;;;;1.13;100.00;102093.09;5021151;28;20295;-75
2022/01/26 03:12:48;;;;;;;37.17;13.50;;;;;;;1.13;100.00;102092.22;5022935;28;20221;-75
2022/01/26 03:15:19;;;;;;;37.93;13.23;;;;;;;1.14;100.00;102091.38;5023671;28;20200;-75
2022/01/26 03:18:01;;;;;;;38.00;12.97;;;;;;;1.13;100.00;102097.34;5023430;28;20233;-75
2022/01/26 03:20:29;;;;;;;35.63;13.13;;;;;;;1.11;100.00;102089.59;5024429;28;20222;-75
2022/01/26 03:28:37;;;;;;;37.90;13.33;;;;;;;1.15;100.00;102082.00;5024419;28;20687;-75
2022/01/26 03:31:51;;;;;;;41.03;13.57;;;;;;;1.12;100.00;102085.31;5021131;28;20360;-75
2022/01/26 03:34:18;;;;;;;40.50;13.07;;;;;;;1.11;100.00;102081.03;5023049;28;20310;-75
2022/01/26 03:36:48;;;;;;;40.27;13.93;;;;;;;1.11;100.00;102081.03;5020785;28;20635;-75
2022/01/26 03:39:17;;;;;;;38.63;13.10;;;;;;;1.12;100.00;102081.03;5025492;28;20287;-75
2022/01/26 03:41:48;;;;;;;41.30;12.50;;;;;;;1.13;100.00;102089.66;5018298;28;20596;-75
2022/01/26 03:44:15;;;;;;;38.40;12.37;;;;;;;1.12;100.00;102075.91;5021571;28;20205;-75
2022/01/26 03:46:42;;;;;;;39.53;12.07;;;;;;;1.11;100.00;102076.75;5020931;28;20206;-75
2022/01/26 03:49:10;;;;;;;43.23;13.90;;;;;;;1.11;100.00;102071.59;5022313;28;20199;-75
2022/01/26 03:51:37;;;;;;;39.67;14.23;;;;;;;1.10;100.00;102072.41;5022211;28;20234;-75
2022/01/26 03:54:05;;;;;;;40.80;13.43;;;;;;;1.10;100.00;102068.97;5021372;28;20219;-75
2022/01/26 03:56:32;;;;;;;41.70;13.00;;;;;;;1.12;100.00;102068.19;5024637;28;20219;-75
2022/01/26 03:58:59;;;;;;;36.80;12.77;;;;;;;1.13;100.00;102069.09;5021744;28;20219;-75
2022/01/26 04:01:26;;;;;;;37.33;13.33;;;;;;;1.13;100.00;102069.09;5024094;28;20595;-75
2022/01/26 04:03:52;;;;;;;45.67;14.50;;;;;;;1.13;100.00;102074.25;5021310;28;20219;-75
2022/01/26 04:06:19;;;;;;;41.50;14.03;;;;;;;1.11;100.00;102071.59;5024368;28;20196;-75
2022/01/26 04:08:46;;;;;;;43.07;13.80;;;;;;;1.12;100.00;102068.19;5017394;28;20208;-75
2022/01/26 04:11:29;;;;;;;44.10;14.17;;;;;;;1.13;100.00;102063.97;5024245;28;20711;-75
2022/01/26 04:13:56;;;;;;;43.20;14.37;;;;;;;1.12;100.00;102060.50;5018958;28;20687;-75
2022/01/26 04:16:24;;;;;;;43.37;13.40;;;;;;;1.12;100.00;102060.50;5024737;28;20244;-75
2022/01/26 04:18:52;;;;;;;45.90;15.00;;;;;;;1.13;100.00;102066.53;5023277;28;20200;-75
2022/01/26 04:21:26;;;;;;;42.43;14.43;;;;;;;1.13;100.00;102058.81;5021013;28;20315;-75
2022/01/26 04:23:58;;;;;;;43.57;13.67;;;;;;;1.15;100.00;102066.59;5019282;28;20203;-75
2022/01/26 04:26:29;;;;;;;43.00;15.27;;;;;;;1.13;100.00;102066.53;5016026;28;20265;-75
2022/01/26 04:29:01;;;;;;;42.70;13.90;;;;;;;1.15;100.00;102066.59;5022626;28;20250;-75
2022/01/26 04:31:28;;;;;;;49.07;14.30;;;;;;;1.15;100.00;102062.31;5021315;28;20560;-75
2022/01/26 04:33:55;;;;;;;39.97;13.40;;;;;;;1.11;100.00;102058.75;5026913;28;20204;-75
2022/01/26 04:36:26;;;;;;;40.10;14.63;;;;;;;1.13;100.00;102063.97;5022566;28;20220;-75
2022/01/26 04:38:57;;;;;;;42.17;14.17;;;;;;;1.13;100.00;102048.53;5021601;28;20467;-75
2022/01/26 04:41:32;;;;;;;44.30;14.03;;;;;;;1.15;100.00;102043.47;5024873;28;20682;-75
2022/01/26 04:44:08;;;;;;;44.00;15.00;;;;;;;1.14;100.00;102050.28;5020288;28;20203;-75
2022/01/26 04:46:35;;;;;;;43.63;14.50;;;;;;;1.15;100.00;102038.31;5017717;28;20633;-75
2022/01/26 04:49:02;;;;;;;43.23;13.30;;;;;;;1.14;100.00;102045.13;5015372;28;20215;-75
2022/01/26 04:51:30;;;;;;;41.40;12.93;;;;;;;1.16;100.00;102045.19;5017843;28;20223;-74
2022/01/26 04:53:56;;;;;;;45.70;13.23;;;;;;;1.14;100.00;102042.56;5018868;28;20214;-75
2022/01/26 04:56:23;;;;;;;46.97;14.07;;;;;;;1.15;100.00;102039.19;5024658;28;20226;-75
2022/01/26 04:58:49;;;;;;;44.20;12.70;;;;;;;1.13;100.00;102036.56;5017938;28;20215;-75
2022/01/26 05:01:15;;;;;;;40.60;13.80;;;;;;;1.13;100.00;102028.84;5024024;28;20216;-75
2022/01/26 05:03:43;;;;;;;43.17;14.13;;;;;;;1.14;100.00;102037.44;5023172;28;20207;-75
2022/01/26 05:06:09;;;;;;;39.27;13.23;;;;;;;1.15;100.00;102028.03;5024730;28;20689;-75
2022/01/26 05:08:36;;;;;;;42.10;13.43;;;;;;;1.15;100.00;102031.47;5019584;28;20290;-75
2022/01/26 05:11:05;;;;;;;40.33;13.00;;;;;;;1.17;100.00;102031.53;5019759;28;20331;-75
2022/01/26 05:13:31;;;;;;;40.53;13.57;;;;;;;1.15;100.00;102028.03;5023658;28;20196;-75
2022/01/26 05:15:58;;;;;;;39.70;13.23;;;;;;;1.15;100.00;102025.47;5021787;28;20219;-75
2022/01/26 05:18:24;;;;;;;40.83;13.23;;;;;;;1.16;100.00;102024.63;5022350;28;20289;-75
2022/01/26 05:20:52;;;;;;;35.30;12.30;;;;;;;1.15;100.00;102015.19;5018675;28;20228;-75
2022/01/26 05:23:18;;;;;;;36.60;13.57;;;;;;;1.15;100.00;102005.78;5022599;28;20200;-75
2022/01/26 05:25:45;;;;;;;46.43;13.13;;;;;;;1.16;100.00;102004.94;5018131;28;20212;-75
2022/01/26 05:28:11;;;;;;;41.60;13.23;;;;;;;1.15;100.00;102004.94;5023584;28;20558;-75
2022/01/26 05:30:38;;;;;;;40.13;12.80;;;;;;;1.16;100.00;102014.38;5021855;28;20722;-75
2022/01/26 05:33:04;;;;;;;39.90;12.73;;;;;;;1.16;100.00;102012.66;5021983;28;20204;-75
2022/01/26 05:35:31;;;;;;;36.63;12.33;;;;;;;1.16;100.00;102009.22;5020314;28;20215;-75
2022/01/26 05:37:59;;;;;;;43.03;13.20;;;;;;;1.17;100.00;102008.41;5025915;28;20227;-75
2022/01/26 05:40:26;;;;;;;38.23;12.63;;;;;;;1.16;100.00;102004.94;5020953;28;20315;-75
2022/01/26 05:42:52;;;;;;;37.47;12.10;;;;;;;1.17;100.00;102005.84;5026093;28;20212;-75
2022/01/26 05:45:25;;;;;;;41.97;12.37;;;;;;;1.16;100.00;102010.09;5022042;28;20210;-74
2022/01/26 05:47:52;;;;;;;32.50;11.47;;;;;;;1.16;100.00;102006.66;5016522;28;20206;-75
2022/01/26 05:50:19;;;;;;;37.37;13.03;;;;;;;1.16;100.00;102007.53;5019702;28;20219;-74
2022/01/26 05:52:46;;;;;;;33.67;11.40;;;;;;;1.15;100.00;102007.50;5026277;28;20208;-75
2022/01/26 05:55:13;;;;;;;39.07;12.07;;;;;;;1.17;100.00;102008.41;5025428;28;20749;-75
2022/01/26 05:57:40;;;;;;;41.60;13.53;;;;;;;1.15;100.00;102005.78;5021595;28;20224;-75
2022/01/26 06:00:08;;;;;;;33.50;12.60;;;;;;;1.17;100.00;101998.13;5020549;28;20367;-75
2022/01/26 06:02:41;;;;;;;36.80;12.23;;;;;;;1.14;100.00;102001.47;5020822;28;20218;-75
2022/01/26 06:05:09;;;;;;;37.90;12.47;;;;;;;1.13;100.00;102004.88;5024593;28;20220;-75
2022/01/26 06:07:35;;;;;;;31.00;11.43;;;;;;;1.14;100.00;102006.59;5020523;28;20243;-75
2022/01/26 06:10:02;;;;;;;28.93;11.07;;;;;;;1.14;100.00;102001.47;5037859;28;20211;-74
2022/01/26 06:12:33;;;;;;;33.50;12.30;;;;;;;1.13;100.00;102005.72;5015585;28;20262;-75
2022/01/26 06:15:00;;;;;;;31.17;10.93;;;;;;;1.13;100.00;102015.16;5025689;28;20219;-75
2022/01/26 06:17:26;;;;;;;26.93;10.57;;;;;;;1.13;100.00;102007.44;5022096;28;20437;-75
2022/01/26 06:19:52;;;;;;;33.83;11.33;;;;;;;1.14;100.00;102006.59;5022591;28;20196;-74
2022/01/26 06:22:19;;;;;;;33.20;10.47;;;;;;;1.14;100.00;102011.75;5023234;28;20220;-75
2022/01/26 06:24:45;;;;;;;31.20;11.43;;;;;;;1.12;100.00;102008.25;5019887;28;20212;-75
2022/01/26 06:27:11;;;;;;;26.07;10.53;;;;;;;1.09;100.00;102010.69;5023901;28;20225;-75
2022/01/26 06:29:39;;;;;;;30.43;11.23;;;;;;;1.10;100.00;102015.03;5022104;28;20207;-75
2022/01/26 06:32:07;;;;;;;25.07;9.80;;;;;;;1.09;100.00;102023.53;5026270;28;20222;-75
2022/01/26 06:34:38;;;;;;;29.93;11.27;;;;;;;1.08;100.00;102016.69;5025010;28;20667;-75
2022/01/26 06:37:04;;;;;;;23.70;10.17;;;;;;;1.09;100.00;102029.56;5024760;28;20215;-75
2022/01/26 06:39:32;;;;;;;23.13;9.73;;;;;;;1.07;100.00;102030.31;5023136;28;20200;-75
2022/01/26 06:41:58;;;;;;;28.17;9.97;;;;;;;1.08;100.00;102029.53;5025265;28;20318;-75
2022/01/26 06:44:29;;;;;;;24.07;9.33;;;;;;;1.07;100.00;102033.78;5024365;28;20192;-75
2022/01/26 06:47:14;;;;;;;31.53;10.73;;;;;;;1.06;100.00;102037.16;5023918;28;20649;-75
2022/01/26 06:49:40;;;;;;;22.87;10.07;;;;;;;1.05;100.00;102031.97;5020241;28;20199;-75
2022/01/26 06:52:07;;;;;;;24.40;10.43;;;;;;;1.03;100.00;102034.47;5021560;28;20230;-75
2022/01/26 06:54:34;;;;;;;29.37;11.07;;;;;;;1.01;100.00;102036.13;5026143;28;20600;-75
2022/01/26 06:57:00;;;;;;;23.27;10.13;;;;;;;0.99;100.00;102027.50;5023462;28;20207;-75
2022/01/26 06:59:27;;;;;;;23.30;9.27;;;;;;;0.98;100.00;102032.56;5020549;28;20505;-75
2022/01/26 07:01:53;;;;;;;20.87;9.10;;;;;;;0.96;100.00;102029.94;5016706;28;20232;-75
2022/01/26 07:04:21;;;;;;;23.57;10.50;;;;;;;0.92;100.00;102030.66;5024394;28;20199;-75
2022/01/26 07:06:48;;;;;;;23.17;9.87;;;;;;;0.92;100.00;102023.84;5025328;28;20219;-75
2022/01/26 07:09:16;;;;;;;24.60;9.87;;;;;;;0.92;100.00;102033.25;5026915;28;20214;-75
2022/01/26 07:11:42;;;;;;;23.97;10.30;;;;;;;0.91;100.00;102016.94;5023972;28;20227;-74
2022/01/26 07:14:10;;;;;;;22.33;10.17;;;;;;;0.90;100.00;102017.78;5023108;28;20656;-75
2022/01/26 07:22:06;;;;;;;27.83;11.63;;;;;;;0.86;100.00;102020.16;5020954;28;20601;-77
2022/01/26 07:24:33;;;;;;;25.63;10.77;;;;;;;0.89;100.00;102028.84;5023908;28;20423;-77
2022/01/26 07:26:59;;;;;;;26.97;11.40;;;;;;;0.85;100.00;102019.31;5023346;28;20294;-77
2022/01/26 07:29:25;;;;;;;28.13;11.57;;;;;;;0.85;100.00;102021.88;5023000;28;20575;-77
2022/01/26 07:31:52;;;;;;;28.40;12.00;;;;;;;0.82;100.00;102021.75;5025381;28;20234;-77
2022/01/26 07:34:22;;;;;;;22.53;10.93;;;;;;;0.83;100.00;102022.66;5025967;28;20235;-77
2022/01/26 07:36:52;;;;;;;25.73;11.10;;;;;;;0.85;100.00;102026.13;5026791;28;20264;-77
2022/01/26 07:39:30;;;;;;;28.67;11.67;;;;;;;0.82;100.00;102032.03;5021504;28;20541;-76
2022/01/26 07:41:57;;;;;;;25.87;10.93;;;;;;;0.81;100.00;102029.38;5023222;28;20571;-77
2022/01/26 07:44:23;;;;;;;30.50;12.30;;;;;;;0.79;100.00;102037.03;5021299;28;20203;-77
2022/01/26 07:46:49;;;;;;;27.10;11.87;;;;;;;0.79;100.00;102036.16;5020300;28;20707;-77
2022/01/26 07:49:16;;;;;;;26.93;11.53;;;;;;;0.80;100.00;102036.22;5021042;28;20611;-77
2022/01/26 07:51:42;;;;;;;27.83;12.07;;;;;;;0.80;100.00;102037.94;5022440;28;20571;-77
2022/01/26 07:54:10;;;;;;;31.47;13.03;;;;;;;0.82;100.00;102037.16;5023087;28;20562;-77
2022/01/26 07:56:36;;;;;;;30.83;12.77;;;;;;;0.82;100.00;102038.84;5020020;28;20204;-77
2022/01/26 07:59:03;;;;;;;32.40;12.47;;;;;;;0.84;100.00;102034.66;5019750;28;20223;-77
2022/01/26 08:01:30;;;;;;;28.97;12.83;;;;;;;0.84;100.00;102040.66;5011888;28;20231;-77
2022/01/26 08:03:56;;;;;;;30.30;12.57;;;;;;;0.88;100.00;102041.63;5020681;28;20192;-77
2022/01/26 08:06:23;;;;;;;30.97;12.47;;;;;;;0.88;100.00;102032.25;5020407;28;20218;-77
2022/01/26 08:08:49;;;;;;;31.33;12.97;;;;;;;0.87;100.00;102032.19;5024520;28;20477;-76
2022/01/26 08:11:17;;;;;;;31.23;13.30;;;;;;;0.86;100.00;102028.75;5019334;28;20224;-77
2022/01/26 08:13:43;;;;;;;33.00;13.20;;;;;;;0.88;100.00;102027.13;5021269;28;20209;-77
2022/01/26 08:16:09;;;;;;;32.67;12.80;;;;;;;0.86;100.00;102033.00;5027117;28;20586;-76
2022/01/26 08:18:36;;;;;;;32.83;13.13;;;;;;;0.89;100.00;102028.84;5028983;28;20224;-77
2022/01/26 08:21:05;;;;;;;32.10;12.80;;;;;;;0.92;100.00;102033.25;5021593;28;20222;-77
2022/01/26 08:27:58;;;;;;;37.57;13.67;;;;;;;0.97;100.00;102026.56;5023427;28;20251;-77
2022/01/26 08:30:24;;;;;;;39.07;13.60;;;;;;;0.98;100.00;102028.31;5023206;28;20245;-77
2022/01/26 08:32:50;;;;;;;31.73;12.97;;;;;;;1.00;100.00;102023.22;5020486;28;20196;-76
2022/01/26 08:35:17;;;;;;;38.70;13.50;;;;;;;1.03;100.00;102019.06;5022274;28;20239;-77
2022/01/26 08:37:43;;;;;;;37.13;13.20;;;;;;;1.03;100.00;102018.22;5019979;28;20273;-77
2022/01/26 08:40:10;;;;;;;35.53;13.87;;;;;;;1.03;100.00;102018.22;5022925;28;20304;-77
2022/01/26 08:42:37;;;;;;;38.07;14.10;;;;;;;1.05;100.00;102017.44;5022587;28;20905;-77
2022/01/26 08:45:06;;;;;;;33.43;13.17;;;;;;;1.08;100.00;102014.97;5024352;28;20196;-77
2022/01/26 08:47:32;;;;;;;34.60;14.37;;;;;;;1.13;100.00;102023.72;5020695;28;20467;-76
2022/01/26 08:49:59;;;;;;;35.37;14.60;;;;;;;1.13;100.00;102017.72;5020138;28;20235;-77
2022/01/26 08:52:25;;;;;;;34.77;13.43;;;;;;;1.22;100.00;102022.31;5020550;28;20204;-76
2022/01/26 08:54:51;;;;;;;38.90;13.73;;;;;;;1.26;100.00;102027.56;5019982;28;20545;-76
2022/01/26 08:57:18;;;;;;;36.47;13.90;;;;;;;1.34;100.00;102017.56;5025244;28;20203;-77
2022/01/26 08:59:44;;;;;;;38.40;14.50;;;;;;;1.46;100.00;102015.41;5020131;28;20246;-77
2022/01/26 09:02:12;;;;;;;35.90;13.73;;;;;;;1.51;100.00;102015.56;5023926;28;20247;-77
2022/01/26 09:04:38;;;;;;;36.47;13.50;;;;;;;1.61;100.00;102021.88;5025377;28;20211;-77
2022/01/26 09:07:05;;;;;;;33.97;13.60;;;;;;;1.66;100.00;102028.06;5021147;28;20200;-77
2022/01/26 09:09:42;;;;;;;35.40;14.57;;;;;;;1.64;100.00;102032.28;5022256;28;20274;-77
2022/01/26 09:12:09;;;;;;;33.77;15.63;;;;;;;1.61;100.00;102033.03;5025853;28;20727;-77
2022/01/26 09:14:36;;;;;;;36.47;14.63;;;;;;;1.61;100.00;102038.19;5024805;28;20634;-77
2022/01/26 09:17:03;;;;;;;31.63;14.77;;;;;;;1.55;100.00;102042.25;5024542;28;20206;-77
2022/01/26 09:19:32;;;;;;;24.40;12.20;;;;;;;1.47;100.00;102029.13;5022182;28;20711;-77
2022/01/26 09:22:00;;;;;;;28.47;12.87;;;;;;;1.50;100.00;102029.25;5026965;28;20243;-77
2022/01/26 09:24:28;;;;;;;28.33;12.90;;;;;;;1.47;100.00;102030.00;5025556;28;20215;-77
2022/01/26 09:26:55;;;;;;;26.03;11.77;;;;;;;1.45;100.00;102043.63;5021799;28;20240;-77
2022/01/26 09:29:21;;;;;;;24.00;11.07;;;;;;;1.45;100.00;102031.66;5031195;28;20192;-77
2022/01/26 09:31:48;;;;;;;25.83;10.83;;;;;;;1.49;100.00;102033.50;5021976;28;20220;-77
2022/01/26 09:34:16;;;;;;;27.47;11.80;;;;;;;1.57;100.00;102030.34;5030653;28;20208;-77
2022/01/26 09:36:44;;;;;;;23.70;12.03;;;;;;;1.59;100.00;102023.53;5025229;28;20204;-77
2022/01/26 09:39:10;;;;;;;27.63;12.53;;;;;;;1.61;100.00;102029.59;5027980;28;20219;-77
2022/01/26 09:41:37;;;;;;;26.30;12.70;;;;;;;1.69;100.00;102029.03;5022739;28;20338;-77
2022/01/26 09:44:04;;;;;;;26.33;11.73;;;;;;;1.79;100.00;102016.47;5025739;28;20258;-77
2022/01/26 09:46:31;;;;;;;22.70;11.10;;;;;;;1.91;100.00;102008.28;5025210;28;20215;-77
2022/01/26 09:48:57;;;;;;;25.73;11.53;;;;;;;1.88;100.00;102014.19;5024325;28;20192;-77
2022/01/26 09:51:23;;;;;;;22.63;10.07;;;;;;;1.89;100.00;102015.94;5026044;28;20458;-77
2022/01/26 09:54:01;;;;;;;20.27;9.83;;;;;;;1.86;100.00;102018.41;5024222;28;20684;-77
2022/01/26 09:56:28;;;;;;;19.10;9.20;;;;;;;1.83;100.00;102008.91;5026569;28;20513;-77
2022/01/26 09:58:54;;;;;;;20.03;9.73;;;;;;;1.73;100.00;102009.44;5026017;28;20592;-77
2022/01/26 10:01:21;;;;;;;19.47;8.97;;;;;;;1.78;100.00;102015.59;5023820;28;20676;-77
2022/01/26 10:03:49;;;;;;;18.47;9.10;;;;;;;1.81;100.00;102014.81;5022237;28;20201;-75
2022/01/26 10:06:21;;;;;;;21.53;9.03;;;;;;;1.85;100.00;102022.69;5026438;28;20640;-75
2022/01/26 10:15:36;;;;;;;16.73;9.20;;;;;;;2.02;100.00;102012.03;5024080;28;20258;-75
2022/01/26 10:18:09;;;;;;;19.27;8.87;;;;;;;2.06;100.00;102013.91;5025014;28;20675;-75
2022/01/26 10:20:41;;;;;;;19.00;9.43;;;;;;;2.06;100.00;102025.06;5031704;28;20228;-75
2022/01/26 10:23:08;;;;;;;19.77;8.37;;;;;;;2.01;100.00;102026.63;5020477;28;20207;-74
2022/01/26 10:25:35;;;;;;;18.03;8.60;;;;;;;2.07;100.00;102031.94;5025175;28;20600;-74
2022/01/26 10:28:02;;;;;;;14.60;8.57;;;;;;;2.10;100.00;102027.75;5025044;28;20207;-74
2022/01/26 10:30:29;;;;;;;18.17;7.90;;;;;;;2.14;100.00;102019.28;5026169;28;20242;-75
2022/01/26 10:32:55;;;;;;;17.17;8.83;;;;;;;2.08;100.00;102012.25;5022078;28;20199;-74
2022/01/26 10:35:21;;;;;;;15.50;8.33;;;;;;;2.14;100.00;102011.56;5027288;28;20207;-75
2022/01/26 10:37:54;;;;;;;17.60;8.23;;;;;;;2.11;100.00;102009.78;5025064;28;20541;-74
2022/01/26 10:40:24;;;;;;;17.77;8.27;;;;;;;2.10;100.00;102009.72;5021570;28;20221;-75
2022/01/26 10:42:59;;;;;;;13.70;6.80;;;;;;;2.08;100.00;102002.81;5025193;28;20204;-75
2022/01/26 10:45:43;;;;;;;15.07;7.20;;;;;;;2.02;100.00;102004.31;5021821;28;20207;-75
2022/01/26 10:48:18;;;;;;;14.07;7.10;;;;;;;2.02;100.00;101996.59;5026344;28;20350;-74
2022/01/26 10:50:58;;;;;;;14.80;6.83;;;;;;;1.98;100.00;101982.78;5022255;28;20250;-74
2022/01/26 10:53:36;;;;;;;14.53;7.03;;;;;;;2.13;100.00;101969.53;5022557;28;20205;-74
2022/01/26 10:56:03;;;;;;;13.83;7.37;;;;;;;2.22;100.00;101980.09;5020920;28;20568;-75
2022/01/26 10:58:30;;;;;;;16.90;7.70;;;;;;;2.28;100.00;101984.53;5022905;28;20243;-74
2022/01/26 11:00:58;;;;;;;15.33;7.40;;;;;;;2.34;100.00;101981.25;5022947;28;20216;-74
2022/01/26 11:03:24;;;;;;;16.93;7.43;;;;;;;2.31;100.00;101976.91;5021087;28;20200;-75
2022/01/26 11:05:52;;;;;;;14.27;7.43;;;;;;;2.32;100.00;101977.78;5026107;28;20211;-75
2022/01/26 11:08:19;;;;;;;14.57;7.67;;;;;;;2.39;100.00;101987.41;5023440;28;20669;-75
2022/01/26 11:10:47;;;;;;;16.60;7.73;;;;;;;2.45;100.00;101985.03;5020090;28;20883;-74
2022/01/26 11:13:25;;;;;;;13.70;7.10;;;;;;;2.55;100.00;101999.94;5024288;28;20575;-75
2022/01/26 11:15:52;;;;;;;16.83;7.43;;;;;;;2.53;100.00;101993.84;5024502;28;20203;-75
2022/01/26 11:18:22;;;;;;;14.37;7.23;;;;;;;2.50;100.00;101998.91;5024247;28;20196;-75
2022/01/26 11:20:50;;;;;;;15.37;7.33;;;;;;;2.52;100.00;101997.25;5022482;28;20231;-74
2022/01/26 11:23:19;;;;;;;12.67;7.00;;;;;;;2.49;100.00;101997.16;5023391;28;20299;-75
2022/01/26 11:25:47;;;;;;;12.90;6.80;;;;;;;2.57;100.00;102002.53;5020975;28;20219;-75
2022/01/26 11:28:16;;;;;;;11.43;6.03;;;;;;;2.55;100.00;102004.19;5023400;28;20199;-74
2022/01/26 11:30:43;;;;;;;11.27;6.27;;;;;;;2.54;100.00;102005.03;5021309;28;20231;-75
2022/01/26 11:33:14;;;;;;;14.57;7.13;;;;;;;2.61;100.00;102002.66;5025075;28;20231;-75
2022/01/26 11:35:44;;;;;;;10.87;5.67;;;;;;;2.61;100.00;102005.25;5023100;28;20203;-75
2022/01/26 11:38:30;;;;;;;11.13;6.57;;;;;;;2.60;100.00;101994.88;5022258;28;20281;-74
2022/01/26 11:46:28;;;;;;;12.37;6.33;;;;;;;2.63;100.00;102005.28;5019246;28;20200;-74
2022/01/26 11:49:05;;;;;;;9.53;5.80;;;;;;;2.67;100.00;101999.38;5019533;28;20208;-75
2022/01/26 11:51:44;;;;;;;15.27;6.40;;;;;;;2.60;100.00;102000.03;5024837;28;20231;-75
2022/01/26 11:54:13;;;;;;;10.90;5.40;;;;;;;2.49;100.00;101992.00;5019664;28;20206;-75
2022/01/26 11:56:39;;;;;;;12.63;5.83;;;;;;;2.46;100.00;101979.94;5022657;28;20203;-75
2022/01/26 11:59:18;;;;;;;11.27;5.73;;;;;;;2.35;100.00;101989.03;5023525;28;20353;-75
2022/01/26 12:01:53;;;;;;;11.23;5.83;;;;;;;2.38;100.00;101989.13;5022600;28;20239;-74
2022/01/26 12:04:20;;;;;;;10.87;5.53;;;;;;;2.39;100.00;101985.75;5025081;28;20298;-75
2022/01/26 12:06:53;;;;;;;10.60;6.03;;;;;;;2.36;100.00;101985.66;5024019;28;20212;-74
2022/01/26 12:09:19;;;;;;;13.80;6.13;;;;;;;2.30;100.00;101982.00;5022380;28;20210;-74
2022/01/26 12:11:52;;;;;;;11.10;6.10;;;;;;;2.30;100.00;101982.00;5019215;28;20235;-75
2022/01/26 12:14:20;;;;;;;9.87;5.50;;;;;;;2.27;100.00;101975.09;5023566;28;20211;-75
2022/01/26 12:16:49;;;;;;;9.87;5.47;;;;;;;2.24;100.00;101972.41;5021441;28;20207;-75
2022/01/26 12:19:27;;;;;;;11.13;5.20;;;;;;;2.34;100.00;101973.53;5024203;28;20672;-75
2022/01/26 12:33:42;;;;;;;10.67;4.60;;;;;;;2.14;100.00;101973.81;5023071;28;20200;-75
2022/01/26 12:36:21;;;;;;;6.70;4.20;;;;;;;2.04;100.00;101971.78;5017530;28;20714;-75
2022/01/26 12:38:57;;;;;;;7.73;4.57;;;;;;;1.99;100.00;101963.97;5018636;28;20223;-75
2022/01/26 12:41:31;;;;;;;8.43;4.07;;;;;;;1.94;100.00;101959.50;5021937;28;20223;-75
2022/01/26 12:43:59;;;;;;;8.03;4.10;;;;;;;1.93;100.00;101955.16;5020587;28;20229;-75
2022/01/26 12:46:36;;;;;;;9.47;4.17;;;;;;;1.94;100.00;101957.78;5025860;28;20212;-75
2022/01/26 12:52:52;;;;;;;8.07;4.33;;;;;;;2.07;100.00;101943.59;5023022;28;20697;-75